sensor_id;sensor_type;location;lat;lon;timestamp;P1;durP1;ratioP1;P2;durP2;ratioP2
46429;SDS011;32131;53.454;-6.180;2024-01-06T10:29:01;5.68;;;1.35;;
46429;SDS011;32131;53.454;-6.180;2024-01-06T10:31:29;3.15;;;1.38;;
46429;SDS011;32131;53.454;-6.180;2024-01-06T10:34:01;2.97;;;1.35;;
46429;SDS011;32131;53.454;-6.180;2024-01-06T10:36:30;4.93;;;2.30;;
46429;SDS011;32131;53.454;-6.180;2024-01-06T10:38:59;5.07;;;1.50;;
46429;SDS011;32131;53.454;-6.180;2024-01-06T10:41:28;3.80;;;1.60;;
46429;SDS011;32131;53.454;-6.180;2024-01-06T10:44:02;4.70;;;1.23;;
46429;SDS011;32131;53.454;-6.180;2024-01-06T10:46:33;9.85;;;2.17;;
46429;SDS011;32131;53.454;-6.180;2024-01-06T10:49:05;4.57;;;1.38;;
46429;SDS011;32131;53.454;-6.180;2024-01-06T10:51:37;2.85;;;1.33;;
46429;SDS011;32131;53.454;-6.180;2024-01-06T10:54:10;4.85;;;1.42;;
46429;SDS011;32131;53.454;-6.180;2024-01-06T10:56:41;12.38;;;2.50;;
46429;SDS011;32131;53.454;-6.180;2024-01-06T10:59:20;5.28;;;1.30;;
46429;SDS011;32131;53.454;-6.180;2024-01-06T11:01:55;3.58;;;1.30;;
46429;SDS011;32131;53.454;-6.180;2024-01-06T11:04:28;8.32;;;1.58;;
46429;SDS011;32131;53.454;-6.180;2024-01-06T11:06:57;6.63;;;1.52;;
46429;SDS011;32131;53.454;-6.180;2024-01-06T11:09:29;5.75;;;1.30;;
46429;SDS011;32131;53.454;-6.180;2024-01-06T11:12:02;9.35;;;1.42;;
46429;SDS011;32131;53.454;-6.180;2024-01-06T11:14:36;3.97;;;1.77;;
46429;SDS011;32131;53.454;-6.180;2024-01-06T11:17:05;6.18;;;1.73;;
46429;SDS011;32131;53.454;-6.180;2024-01-06T11:19:43;12.02;;;1.77;;
46429;SDS011;32131;53.454;-6.180;2024-01-06T11:22:24;5.03;;;1.65;;
46429;SDS011;32131;53.454;-6.180;2024-01-06T11:24:55;3.67;;;1.17;;
46429;SDS011;32131;53.454;-6.180;2024-01-06T11:27:27;4.13;;;1.23;;
46429;SDS011;32131;53.454;-6.180;2024-01-06T11:29:58;4.70;;;1.17;;
46429;SDS011;32131;53.454;-6.180;2024-01-06T11:32:31;6.15;;;1.90;;
46429;SDS011;32131;53.454;-6.180;2024-01-06T11:35:06;7.70;;;2.72;;
46429;SDS011;32131;53.454;-6.180;2024-01-06T11:37:37;6.13;;;2.50;;
46429;SDS011;32131;53.454;-6.180;2024-01-06T11:40:22;3.03;;;1.35;;
46429;SDS011;32131;53.454;-6.180;2024-01-06T11:43:00;8.43;;;1.83;;
46429;SDS011;32131;53.454;-6.180;2024-01-06T11:45:32;4.88;;;1.40;;
46429;SDS011;32131;53.454;-6.180;2024-01-06T11:48:02;7.32;;;1.05;;
46429;SDS011;32131;53.454;-6.180;2024-01-06T11:53:01;9.38;;;1.77;;
46429;SDS011;32131;53.454;-6.180;2024-01-06T11:55:31;7.45;;;2.30;;
46429;SDS011;32131;53.454;-6.180;2024-01-06T11:58:01;7.32;;;1.92;;
46429;SDS011;32131;53.454;-6.180;2024-01-06T12:00:36;3.72;;;1.85;;
46429;SDS011;32131;53.454;-6.180;2024-01-06T12:03:08;7.18;;;2.40;;
46429;SDS011;32131;53.454;-6.180;2024-01-06T12:05:36;10.85;;;3.15;;
46429;SDS011;32131;53.454;-6.180;2024-01-06T12:08:05;10.23;;;3.15;;
46429;SDS011;32131;53.454;-6.180;2024-01-06T12:10:55;6.80;;;2.90;;
46429;SDS011;32131;53.454;-6.180;2024-01-06T12:13:32;4.72;;;2.63;;
46429;SDS011;32131;53.454;-6.180;2024-01-06T12:16:09;10.80;;;2.65;;
46429;SDS011;32131;53.454;-6.180;2024-01-06T12:18:48;6.97;;;2.95;;
46429;SDS011;32131;53.454;-6.180;2024-01-06T12:21:27;7.53;;;2.78;;
46429;SDS011;32131;53.454;-6.180;2024-01-06T12:26:45;10.27;;;3.55;;
46429;SDS011;32131;53.454;-6.180;2024-01-06T12:29:18;9.15;;;1.98;;
46429;SDS011;32131;53.454;-6.180;2024-01-06T12:35:29;3.38;;;1.85;;
46429;SDS011;32131;53.454;-6.180;2024-01-06T12:38:43;4.50;;;1.55;;
46429;SDS011;32131;53.454;-6.180;2024-01-06T12:41:14;3.90;;;1.92;;
46429;SDS011;32131;53.454;-6.180;2024-01-06T12:43:49;6.30;;;2.28;;
46429;SDS011;32131;53.454;-6.180;2024-01-06T12:46:44;3.85;;;1.52;;
46429;SDS011;32131;53.454;-6.180;2024-01-06T12:49:17;7.00;;;1.17;;
46429;SDS011;32131;53.454;-6.180;2024-01-06T12:51:52;10.48;;;2.80;;
46429;SDS011;32131;53.454;-6.180;2024-01-06T12:54:26;13.40;;;2.10;;
46429;SDS011;32131;53.454;-6.180;2024-01-06T12:57:14;5.03;;;1.40;;
46429;SDS011;32131;53.454;-6.180;2024-01-06T13:00:00;13.32;;;1.25;;
46429;SDS011;32131;53.454;-6.180;2024-01-06T13:03:13;2.97;;;1.17;;
46429;SDS011;32131;53.454;-6.180;2024-01-06T13:05:59;8.65;;;1.67;;
46429;SDS011;32131;53.454;-6.180;2024-01-06T13:08:46;5.35;;;1.55;;
46429;SDS011;32131;53.454;-6.180;2024-01-06T13:11:24;4.32;;;1.60;;
46429;SDS011;32131;53.454;-6.180;2024-01-06T13:14:32;6.10;;;1.08;;
46429;SDS011;32131;53.454;-6.180;2024-01-06T13:17:30;5.13;;;1.30;;
46429;SDS011;32131;53.454;-6.180;2024-01-06T13:20:19;8.10;;;1.48;;
46429;SDS011;32131;53.454;-6.180;2024-01-06T13:23:04;6.88;;;1.25;;
46429;SDS011;32131;53.454;-6.180;2024-01-06T16:06:02;19.13;;;8.55;;
46429;SDS011;32131;53.454;-6.180;2024-01-06T16:08:33;12.90;;;6.38;;
46429;SDS011;32131;53.454;-6.180;2024-01-06T16:11:02;12.88;;;5.90;;
46429;SDS011;32131;53.454;-6.180;2024-01-06T16:13:31;13.15;;;5.30;;
46429;SDS011;32131;53.454;-6.180;2024-01-06T16:16:00;14.18;;;5.70;;
46429;SDS011;32131;53.454;-6.180;2024-01-06T16:18:31;16.73;;;6.70;;
46429;SDS011;32131;53.454;-6.180;2024-01-06T16:21:02;19.20;;;7.95;;
46429;SDS011;32131;53.454;-6.180;2024-01-06T16:23:30;12.77;;;7.25;;
46429;SDS011;32131;53.454;-6.180;2024-01-06T16:25:59;13.57;;;6.78;;
46429;SDS011;32131;53.454;-6.180;2024-01-06T16:28:27;17.52;;;8.65;;
46429;SDS011;32131;53.454;-6.180;2024-01-06T16:30:55;20.67;;;9.55;;
46429;SDS011;32131;53.454;-6.180;2024-01-06T16:33:24;19.75;;;8.30;;
46429;SDS011;32131;53.454;-6.180;2024-01-06T16:35:54;9.77;;;5.18;;
46429;SDS011;32131;53.454;-6.180;2024-01-06T16:38:27;11.38;;;5.20;;
46429;SDS011;32131;53.454;-6.180;2024-01-06T16:41:02;10.00;;;5.35;;
46429;SDS011;32131;53.454;-6.180;2024-01-06T16:43:32;9.50;;;4.55;;
46429;SDS011;32131;53.454;-6.180;2024-01-06T16:46:04;11.65;;;5.47;;
46429;SDS011;32131;53.454;-6.180;2024-01-06T16:48:32;16.35;;;5.28;;
46429;SDS011;32131;53.454;-6.180;2024-01-06T16:51:01;11.43;;;5.80;;
46429;SDS011;32131;53.454;-6.180;2024-01-06T16:53:31;15.75;;;6.30;;
46429;SDS011;32131;53.454;-6.180;2024-01-06T16:56:00;15.60;;;8.18;;
46429;SDS011;32131;53.454;-6.180;2024-01-06T16:58:31;21.77;;;10.23;;
46429;SDS011;32131;53.454;-6.180;2024-01-06T17:01:03;16.27;;;8.30;;
46429;SDS011;32131;53.454;-6.180;2024-01-06T17:03:32;18.27;;;9.60;;
46429;SDS011;32131;53.454;-6.180;2024-01-06T17:06:01;18.42;;;11.23;;
46429;SDS011;32131;53.454;-6.180;2024-01-06T17:08:30;25.05;;;11.35;;
46429;SDS011;32131;53.454;-6.180;2024-01-06T17:10:59;18.40;;;10.13;;
46429;SDS011;32131;53.454;-6.180;2024-01-06T17:13:28;16.35;;;7.35;;
46429;SDS011;32131;53.454;-6.180;2024-01-06T17:15:56;15.85;;;7.18;;
46429;SDS011;32131;53.454;-6.180;2024-01-06T17:22:19;12.45;;;5.50;;
46429;SDS011;32131;53.454;-6.180;2024-01-06T17:29:21;16.30;;;8.20;;
46429;SDS011;32131;53.454;-6.180;2024-01-06T17:36:08;14.55;;;6.15;;
46429;SDS011;32131;53.454;-6.180;2024-01-06T17:38:57;17.77;;;6.93;;
46429;SDS011;32131;53.454;-6.180;2024-01-06T17:41:37;15.75;;;6.70;;
46429;SDS011;32131;53.454;-6.180;2024-01-06T17:44:26;14.23;;;7.50;;
46429;SDS011;32131;53.454;-6.180;2024-01-06T17:50:29;26.00;;;10.85;;
46429;SDS011;32131;53.454;-6.180;2024-01-06T17:56:32;40.53;;;16.48;;
46429;SDS011;32131;53.454;-6.180;2024-01-06T17:59:06;37.23;;;19.27;;
46429;SDS011;32131;53.454;-6.180;2024-01-06T18:01:40;34.20;;;21.15;;
46429;SDS011;32131;53.454;-6.180;2024-01-06T18:07:25;42.78;;;26.75;;
46429;SDS011;32131;53.454;-6.180;2024-01-06T18:09:56;49.33;;;28.25;;
46429;SDS011;32131;53.454;-6.180;2024-01-06T18:12:27;43.92;;;28.13;;
46429;SDS011;32131;53.454;-6.180;2024-01-06T18:15:14;43.38;;;28.45;;
46429;SDS011;32131;53.454;-6.180;2024-01-06T18:17:44;39.92;;;28.05;;
46429;SDS011;32131;53.454;-6.180;2024-01-06T18:20:15;37.28;;;25.63;;
46429;SDS011;32131;53.454;-6.180;2024-01-06T18:22:48;43.25;;;24.00;;
46429;SDS011;32131;53.454;-6.180;2024-01-06T18:25:17;42.65;;;24.17;;
46429;SDS011;32131;53.454;-6.180;2024-01-06T18:27:48;34.05;;;17.50;;
46429;SDS011;32131;53.454;-6.180;2024-01-06T18:30:24;37.25;;;18.45;;
46429;SDS011;32131;53.454;-6.180;2024-01-06T18:32:56;27.02;;;12.95;;
46429;SDS011;32131;53.454;-6.180;2024-01-06T18:35:26;26.17;;;13.40;;
46429;SDS011;32131;53.454;-6.180;2024-01-06T18:37:55;21.95;;;10.50;;
46429;SDS011;32131;53.454;-6.180;2024-01-06T18:40:24;21.90;;;9.65;;
46429;SDS011;32131;53.454;-6.180;2024-01-06T18:42:55;23.92;;;10.45;;
46429;SDS011;32131;53.454;-6.180;2024-01-06T18:45:25;25.17;;;11.38;;
46429;SDS011;32131;53.454;-6.180;2024-01-06T18:50:23;27.25;;;9.55;;
46429;SDS011;32131;53.454;-6.180;2024-01-06T18:52:52;24.88;;;10.05;;
46429;SDS011;32131;53.454;-6.180;2024-01-06T18:55:21;22.42;;;8.82;;
46429;SDS011;32131;53.454;-6.180;2024-01-06T18:57:49;19.48;;;7.72;;
46429;SDS011;32131;53.454;-6.180;2024-01-06T19:00:18;13.67;;;6.50;;
46429;SDS011;32131;53.454;-6.180;2024-01-06T19:02:51;18.30;;;7.28;;
46429;SDS011;32131;53.454;-6.180;2024-01-06T19:05:20;12.07;;;6.47;;
46429;SDS011;32131;53.454;-6.180;2024-01-06T19:07:49;16.25;;;7.15;;
46429;SDS011;32131;53.454;-6.180;2024-01-06T19:10:20;15.73;;;7.03;;
46429;SDS011;32131;53.454;-6.180;2024-01-06T19:12:48;16.88;;;8.18;;
46429;SDS011;32131;53.454;-6.180;2024-01-06T19:15:17;14.40;;;6.80;;
46429;SDS011;32131;53.454;-6.180;2024-01-06T19:17:46;13.73;;;6.65;;
46429;SDS011;32131;53.454;-6.180;2024-01-06T19:20:16;15.52;;;5.90;;
46429;SDS011;32131;53.454;-6.180;2024-01-06T19:22:45;14.20;;;5.45;;
46429;SDS011;32131;53.454;-6.180;2024-01-06T19:25:31;11.98;;;4.70;;
46429;SDS011;32131;53.454;-6.180;2024-01-06T19:28:17;13.27;;;4.63;;
46429;SDS011;32131;53.454;-6.180;2024-01-06T19:30:48;17.25;;;5.72;;
46429;SDS011;32131;53.454;-6.180;2024-01-06T19:33:19;17.90;;;5.35;;
46429;SDS011;32131;53.454;-6.180;2024-01-06T19:35:52;7.57;;;3.95;;
46429;SDS011;32131;53.454;-6.180;2024-01-06T19:38:20;9.70;;;4.65;;
46429;SDS011;32131;53.454;-6.180;2024-01-06T19:40:49;12.82;;;5.35;;
46429;SDS011;32131;53.454;-6.180;2024-01-06T19:43:20;16.25;;;6.13;;
46429;SDS011;32131;53.454;-6.180;2024-01-06T19:45:52;14.82;;;6.28;;
46429;SDS011;32131;53.454;-6.180;2024-01-06T19:48:21;14.02;;;5.88;;
46429;SDS011;32131;53.454;-6.180;2024-01-06T19:50:57;13.38;;;5.10;;
46429;SDS011;32131;53.454;-6.180;2024-01-06T19:53:25;15.38;;;5.43;;
46429;SDS011;32131;53.454;-6.180;2024-01-06T19:55:55;11.48;;;5.85;;
46429;SDS011;32131;53.454;-6.180;2024-01-06T19:58:23;14.00;;;5.55;;
46429;SDS011;32131;53.454;-6.180;2024-01-06T20:00:55;13.57;;;5.88;;
46429;SDS011;32131;53.454;-6.180;2024-01-06T20:03:27;19.90;;;6.45;;
46429;SDS011;32131;53.454;-6.180;2024-01-06T20:05:57;20.15;;;7.80;;
46429;SDS011;32131;53.454;-6.180;2024-01-06T20:08:29;16.60;;;6.50;;
46429;SDS011;32131;53.454;-6.180;2024-01-06T20:11:00;15.68;;;8.25;;
46429;SDS011;32131;53.454;-6.180;2024-01-06T20:13:30;20.30;;;8.85;;
46429;SDS011;32131;53.454;-6.180;2024-01-06T20:15:59;15.25;;;6.72;;
46429;SDS011;32131;53.454;-6.180;2024-01-06T20:18:28;15.88;;;6.97;;
46429;SDS011;32131;53.454;-6.180;2024-01-06T20:20:58;17.20;;;7.05;;
46429;SDS011;32131;53.454;-6.180;2024-01-06T20:23:30;23.83;;;8.82;;
46429;SDS011;32131;53.454;-6.180;2024-01-06T20:25:58;19.90;;;6.65;;
46429;SDS011;32131;53.454;-6.180;2024-01-06T20:28:27;18.35;;;8.25;;
46429;SDS011;32131;53.454;-6.180;2024-01-06T20:30:55;20.42;;;8.68;;
46429;SDS011;32131;53.454;-6.180;2024-01-06T20:33:26;20.27;;;8.10;;
46429;SDS011;32131;53.454;-6.180;2024-01-06T20:36:02;16.42;;;7.88;;
46429;SDS011;32131;53.454;-6.180;2024-01-06T20:38:32;21.48;;;8.60;;
46429;SDS011;32131;53.454;-6.180;2024-01-06T20:41:01;26.38;;;8.82;;
46429;SDS011;32131;53.454;-6.180;2024-01-06T20:44:31;21.70;;;7.97;;
46429;SDS011;32131;53.454;-6.180;2024-01-06T20:48:01;24.67;;;9.40;;
46429;SDS011;32131;53.454;-6.180;2024-01-06T20:58:02;14.60;;;7.75;;
46429;SDS011;32131;53.454;-6.180;2024-01-06T21:00:31;18.20;;;7.70;;
46429;SDS011;32131;53.454;-6.180;2024-01-06T21:03:00;21.93;;;10.07;;
46429;SDS011;32131;53.454;-6.180;2024-01-06T21:05:29;26.55;;;10.07;;
46429;SDS011;32131;53.454;-6.180;2024-01-06T21:07:59;19.10;;;9.17;;
46429;SDS011;32131;53.454;-6.180;2024-01-06T21:10:29;20.95;;;7.72;;
46429;SDS011;32131;53.454;-6.180;2024-01-06T21:12:57;16.25;;;7.57;;
46429;SDS011;32131;53.454;-6.180;2024-01-06T21:17:55;23.27;;;8.18;;
46429;SDS011;32131;53.454;-6.180;2024-01-06T21:20:24;17.20;;;7.63;;
46429;SDS011;32131;53.454;-6.180;2024-01-06T21:22:52;20.65;;;7.30;;
46429;SDS011;32131;53.454;-6.180;2024-01-06T21:25:22;18.77;;;7.55;;
46429;SDS011;32131;53.454;-6.180;2024-01-06T21:27:52;19.83;;;7.07;;
46429;SDS011;32131;53.454;-6.180;2024-01-06T21:30:21;16.33;;;7.65;;
46429;SDS011;32131;53.454;-6.180;2024-01-06T21:32:50;14.40;;;6.90;;
46429;SDS011;32131;53.454;-6.180;2024-01-06T21:35:26;29.38;;;9.73;;
46429;SDS011;32131;53.454;-6.180;2024-01-06T21:37:56;24.63;;;8.45;;
46429;SDS011;32131;53.454;-6.180;2024-01-06T21:40:28;20.60;;;7.93;;
46429;SDS011;32131;53.454;-6.180;2024-01-06T21:42:57;19.25;;;8.75;;
46429;SDS011;32131;53.454;-6.180;2024-01-06T21:45:25;15.32;;;8.32;;
46429;SDS011;32131;53.454;-6.180;2024-01-06T21:47:54;21.17;;;8.82;;
46429;SDS011;32131;53.454;-6.180;2024-01-06T21:50:22;15.50;;;8.00;;
46429;SDS011;32131;53.454;-6.180;2024-01-06T21:52:51;15.70;;;6.93;;
46429;SDS011;32131;53.454;-6.180;2024-01-06T21:55:20;13.98;;;7.25;;
46429;SDS011;32131;53.454;-6.180;2024-01-06T21:57:56;23.38;;;8.95;;
46429;SDS011;32131;53.454;-6.180;2024-01-06T22:01:06;18.27;;;8.43;;
46429;SDS011;32131;53.454;-6.180;2024-01-06T22:03:45;19.10;;;10.02;;
46429;SDS011;32131;53.454;-6.180;2024-01-06T22:06:33;15.50;;;7.18;;
46429;SDS011;32131;53.454;-6.180;2024-01-06T22:09:33;15.57;;;8.40;;
46429;SDS011;32131;53.454;-6.180;2024-01-06T22:12:31;14.48;;;6.78;;
46429;SDS011;32131;53.454;-6.180;2024-01-06T22:15:14;19.92;;;7.40;;
46429;SDS011;32131;53.454;-6.180;2024-01-06T22:18:23;16.00;;;6.43;;
46429;SDS011;32131;53.454;-6.180;2024-01-06T22:21:30;15.95;;;6.40;;
46429;SDS011;32131;53.454;-6.180;2024-01-06T22:24:48;13.48;;;6.60;;
46429;SDS011;32131;53.454;-6.180;2024-01-06T22:35:52;16.60;;;5.85;;
46429;SDS011;32131;53.454;-6.180;2024-01-06T22:43:32;11.50;;;5.72;;
46429;SDS011;32131;53.454;-6.180;2024-01-06T22:47:04;14.80;;;5.82;;
46429;SDS011;32131;53.454;-6.180;2024-01-06T23:25:09;13.65;;;7.10;;
46429;SDS011;32131;53.454;-6.180;2024-01-06T23:28:17;10.55;;;5.85;;
46429;SDS011;32131;53.454;-6.180;2024-01-06T23:31:28;13.57;;;6.55;;
46429;SDS011;32131;53.454;-6.180;2024-01-06T23:34:06;10.70;;;5.60;;
46429;SDS011;32131;53.454;-6.180;2024-01-06T23:44:13;14.30;;;6.78;;
46429;SDS011;32131;53.454;-6.180;2024-01-06T23:46:57;14.45;;;5.93;;
46429;SDS011;32131;53.454;-6.180;2024-01-06T23:50:13;10.10;;;5.68;;
46429;SDS011;32131;53.454;-6.180;2024-01-06T23:53:18;15.95;;;5.38;;
46429;SDS011;32131;53.454;-6.180;2024-01-06T23:56:44;12.57;;;5.68;;
